sensor_id;sensor_type;location;lat;lon;timestamp;P1;durP1;ratioP1;P2;durP2;ratioP2
76689;SDS011;70102;44.506;0.220;2023-11-25T00:01:29;6.13;;;3.70;;
76689;SDS011;70102;44.506;0.220;2023-11-25T00:07:01;6.00;;;3.00;;
76689;SDS011;70102;44.506;0.220;2023-11-25T00:12:34;8.10;;;2.70;;
76689;SDS011;70102;44.506;0.220;2023-11-25T00:18:07;5.57;;;2.93;;
76689;SDS011;70102;44.506;0.220;2023-11-25T00:23:39;14.93;;;2.60;;
76689;SDS011;70102;44.506;0.220;2023-11-25T00:29:13;5.37;;;2.67;;
76689;SDS011;70102;44.506;0.220;2023-11-25T00:34:47;7.33;;;2.60;;
76689;SDS011;70102;44.506;0.220;2023-11-25T00:40:19;8.60;;;2.67;;
76689;SDS011;70102;44.506;0.220;2023-11-25T00:45:51;6.37;;;2.07;;
76689;SDS011;70102;44.506;0.220;2023-11-25T00:51:24;4.47;;;1.90;;
76689;SDS011;70102;44.506;0.220;2023-11-25T00:56:56;5.40;;;2.50;;
76689;SDS011;70102;44.506;0.220;2023-11-25T01:02:28;6.47;;;1.93;;
76689;SDS011;70102;44.506;0.220;2023-11-25T01:08:01;12.50;;;2.17;;
76689;SDS011;70102;44.506;0.220;2023-11-25T01:13:35;6.43;;;1.80;;
76689;SDS011;70102;44.506;0.220;2023-11-25T01:19:07;6.93;;;2.77;;
76689;SDS011;70102;44.506;0.220;2023-11-25T01:24:40;5.00;;;2.10;;
76689;SDS011;70102;44.506;0.220;2023-11-25T01:30:13;10.17;;;2.17;;
76689;SDS011;70102;44.506;0.220;2023-11-25T01:35:46;4.53;;;2.13;;
76689;SDS011;70102;44.506;0.220;2023-11-25T01:41:19;7.53;;;1.60;;
76689;SDS011;70102;44.506;0.220;2023-11-25T01:46:52;9.93;;;1.67;;
76689;SDS011;70102;44.506;0.220;2023-11-25T01:52:25;9.77;;;1.40;;
76689;SDS011;70102;44.506;0.220;2023-11-25T01:57:58;3.43;;;1.50;;
76689;SDS011;70102;44.506;0.220;2023-11-25T02:03:31;8.20;;;1.67;;
76689;SDS011;70102;44.506;0.220;2023-11-25T02:09:04;8.70;;;2.00;;
76689;SDS011;70102;44.506;0.220;2023-11-25T02:14:37;14.17;;;3.10;;
76689;SDS011;70102;44.506;0.220;2023-11-25T02:20:10;8.00;;;1.73;;
76689;SDS011;70102;44.506;0.220;2023-11-25T02:25:44;4.93;;;1.13;;
76689;SDS011;70102;44.506;0.220;2023-11-25T02:31:15;5.90;;;1.90;;
76689;SDS011;70102;44.506;0.220;2023-11-25T02:36:47;10.20;;;1.97;;
76689;SDS011;70102;44.506;0.220;2023-11-25T02:42:21;9.37;;;1.83;;
76689;SDS011;70102;44.506;0.220;2023-11-25T02:47:53;5.17;;;1.60;;
76689;SDS011;70102;44.506;0.220;2023-11-25T02:53:26;7.40;;;1.60;;
76689;SDS011;70102;44.506;0.220;2023-11-25T02:58:59;2.40;;;1.23;;
76689;SDS011;70102;44.506;0.220;2023-11-25T03:04:32;11.90;;;2.90;;
76689;SDS011;70102;44.506;0.220;2023-11-25T03:10:04;11.47;;;1.67;;
76689;SDS011;70102;44.506;0.220;2023-11-25T03:15:38;4.10;;;1.67;;
76689;SDS011;70102;44.506;0.220;2023-11-25T03:21:10;6.07;;;1.83;;
76689;SDS011;70102;44.506;0.220;2023-11-25T03:26:43;6.83;;;1.57;;
76689;SDS011;70102;44.506;0.220;2023-11-25T03:32:16;12.27;;;2.23;;
76689;SDS011;70102;44.506;0.220;2023-11-25T03:37:49;4.70;;;1.77;;
76689;SDS011;70102;44.506;0.220;2023-11-25T03:43:20;1.93;;;1.47;;
76689;SDS011;70102;44.506;0.220;2023-11-25T03:48:52;7.17;;;1.80;;
76689;SDS011;70102;44.506;0.220;2023-11-25T03:54:25;7.90;;;2.40;;
76689;SDS011;70102;44.506;0.220;2023-11-25T03:59:57;9.03;;;2.33;;
76689;SDS011;70102;44.506;0.220;2023-11-25T04:05:30;8.37;;;1.50;;
76689;SDS011;70102;44.506;0.220;2023-11-25T04:11:04;7.03;;;2.40;;
76689;SDS011;70102;44.506;0.220;2023-11-25T04:16:38;12.67;;;1.87;;
76689;SDS011;70102;44.506;0.220;2023-11-25T04:22:10;5.83;;;1.80;;
76689;SDS011;70102;44.506;0.220;2023-11-25T04:27:44;6.80;;;2.47;;
76689;SDS011;70102;44.506;0.220;2023-11-25T04:33:16;5.67;;;1.80;;
76689;SDS011;70102;44.506;0.220;2023-11-25T04:38:48;8.33;;;2.20;;
76689;SDS011;70102;44.506;0.220;2023-11-25T04:44:22;9.10;;;2.00;;
76689;SDS011;70102;44.506;0.220;2023-11-25T04:49:55;10.23;;;1.50;;
76689;SDS011;70102;44.506;0.220;2023-11-25T04:55:27;9.83;;;2.30;;
76689;SDS011;70102;44.506;0.220;2023-11-25T05:01:01;10.53;;;1.90;;
76689;SDS011;70102;44.506;0.220;2023-11-25T05:06:33;5.97;;;1.43;;
76689;SDS011;70102;44.506;0.220;2023-11-25T05:12:06;15.63;;;2.10;;
76689;SDS011;70102;44.506;0.220;2023-11-25T05:17:38;7.90;;;2.33;;
76689;SDS011;70102;44.506;0.220;2023-11-25T05:23:12;9.57;;;2.33;;
76689;SDS011;70102;44.506;0.220;2023-11-25T05:28:44;10.63;;;1.87;;
76689;SDS011;70102;44.506;0.220;2023-11-25T05:34:16;5.27;;;1.90;;
76689;SDS011;70102;44.506;0.220;2023-11-25T05:39:49;9.63;;;1.70;;
76689;SDS011;70102;44.506;0.220;2023-11-25T05:45:22;5.77;;;2.50;;
76689;SDS011;70102;44.506;0.220;2023-11-25T05:50:55;8.73;;;2.60;;
76689;SDS011;70102;44.506;0.220;2023-11-25T05:56:29;10.47;;;1.77;;
76689;SDS011;70102;44.506;0.220;2023-11-25T06:02:01;10.53;;;1.77;;
76689;SDS011;70102;44.506;0.220;2023-11-25T06:07:33;8.23;;;2.63;;
76689;SDS011;70102;44.506;0.220;2023-11-25T06:13:06;15.10;;;3.97;;
76689;SDS011;70102;44.506;0.220;2023-11-25T06:18:38;15.00;;;2.77;;
76689;SDS011;70102;44.506;0.220;2023-11-25T06:24:11;12.37;;;3.97;;
76689;SDS011;70102;44.506;0.220;2023-11-25T06:29:44;21.03;;;5.83;;
76689;SDS011;70102;44.506;0.220;2023-11-25T06:35:16;9.00;;;3.57;;
76689;SDS011;70102;44.506;0.220;2023-11-25T06:40:48;11.43;;;3.37;;
76689;SDS011;70102;44.506;0.220;2023-11-25T06:46:20;14.47;;;4.37;;
76689;SDS011;70102;44.506;0.220;2023-11-25T06:51:53;11.17;;;4.30;;
76689;SDS011;70102;44.506;0.220;2023-11-25T06:57:25;17.07;;;5.03;;
76689;SDS011;70102;44.506;0.220;2023-11-25T07:02:58;12.40;;;3.10;;
76689;SDS011;70102;44.506;0.220;2023-11-25T07:08:32;7.93;;;2.87;;
76689;SDS011;70102;44.506;0.220;2023-11-25T07:14:04;14.03;;;3.50;;
76689;SDS011;70102;44.506;0.220;2023-11-25T07:19:38;9.37;;;2.30;;
76689;SDS011;70102;44.506;0.220;2023-11-25T07:25:10;11.90;;;2.80;;
76689;SDS011;70102;44.506;0.220;2023-11-25T07:30:42;12.40;;;2.63;;
76689;SDS011;70102;44.506;0.220;2023-11-25T07:36:15;8.73;;;3.00;;
76689;SDS011;70102;44.506;0.220;2023-11-25T07:41:49;7.80;;;3.20;;
76689;SDS011;70102;44.506;0.220;2023-11-25T07:47:20;10.17;;;4.53;;
76689;SDS011;70102;44.506;0.220;2023-11-25T07:52:53;6.13;;;3.07;;
76689;SDS011;70102;44.506;0.220;2023-11-25T07:58:25;9.87;;;3.27;;
76689;SDS011;70102;44.506;0.220;2023-11-25T08:03:58;7.33;;;2.57;;
76689;SDS011;70102;44.506;0.220;2023-11-25T08:09:31;6.27;;;1.67;;
76689;SDS011;70102;44.506;0.220;2023-11-25T08:15:04;7.13;;;2.20;;
76689;SDS011;70102;44.506;0.220;2023-11-25T08:20:37;5.43;;;1.83;;
76689;SDS011;70102;44.506;0.220;2023-11-25T08:26:16;9.20;;;2.10;;
76689;SDS011;70102;44.506;0.220;2023-11-25T08:31:44;6.47;;;1.67;;
76689;SDS011;70102;44.506;0.220;2023-11-25T08:37:15;3.37;;;2.00;;
76689;SDS011;70102;44.506;0.220;2023-11-25T08:42:49;3.37;;;1.13;;
76689;SDS011;70102;44.506;0.220;2023-11-25T08:48:22;4.87;;;1.30;;
76689;SDS011;70102;44.506;0.220;2023-11-25T08:53:56;2.03;;;1.40;;
76689;SDS011;70102;44.506;0.220;2023-11-25T08:59:28;5.87;;;2.00;;
76689;SDS011;70102;44.506;0.220;2023-11-25T09:05:00;2.33;;;1.63;;
76689;SDS011;70102;44.506;0.220;2023-11-25T09:10:34;4.67;;;1.47;;
76689;SDS011;70102;44.506;0.220;2023-11-25T09:16:08;4.03;;;1.63;;
76689;SDS011;70102;44.506;0.220;2023-11-25T09:21:40;2.90;;;1.33;;
76689;SDS011;70102;44.506;0.220;2023-11-25T09:27:12;1.63;;;1.30;;
76689;SDS011;70102;44.506;0.220;2023-11-25T09:32:46;3.20;;;1.20;;
76689;SDS011;70102;44.506;0.220;2023-11-25T09:38:20;4.90;;;1.00;;
76689;SDS011;70102;44.506;0.220;2023-11-25T09:43:53;5.33;;;2.10;;
76689;SDS011;70102;44.506;0.220;2023-11-25T09:49:28;4.07;;;1.10;;
76689;SDS011;70102;44.506;0.220;2023-11-25T09:55:01;6.80;;;1.30;;
76689;SDS011;70102;44.506;0.220;2023-11-25T10:00:35;5.13;;;1.00;;
76689;SDS011;70102;44.506;0.220;2023-11-25T10:06:07;1.30;;;1.20;;
76689;SDS011;70102;44.506;0.220;2023-11-25T10:11:40;3.23;;;0.50;;
76689;SDS011;70102;44.506;0.220;2023-11-25T10:17:16;6.50;;;1.17;;
76689;SDS011;70102;44.506;0.220;2023-11-25T10:22:47;3.37;;;0.83;;
76689;SDS011;70102;44.506;0.220;2023-11-25T10:28:19;3.90;;;0.70;;
76689;SDS011;70102;44.506;0.220;2023-11-25T10:33:55;1.23;;;0.70;;
76689;SDS011;70102;44.506;0.220;2023-11-25T10:39:23;3.40;;;1.40;;
76689;SDS011;70102;44.506;0.220;2023-11-25T10:44:57;2.57;;;0.67;;
76689;SDS011;70102;44.506;0.220;2023-11-25T10:50:29;3.43;;;0.50;;
76689;SDS011;70102;44.506;0.220;2023-11-25T10:56:02;1.83;;;0.90;;
76689;SDS011;70102;44.506;0.220;2023-11-25T11:01:35;1.07;;;0.93;;
76689;SDS011;70102;44.506;0.220;2023-11-25T11:07:06;1.70;;;1.20;;
76689;SDS011;70102;44.506;0.220;2023-11-25T11:12:42;0.93;;;0.50;;
76689;SDS011;70102;44.506;0.220;2023-11-25T11:18:15;3.47;;;0.87;;
76689;SDS011;70102;44.506;0.220;2023-11-25T11:23:45;2.80;;;0.80;;
76689;SDS011;70102;44.506;0.220;2023-11-25T11:29:20;2.80;;;0.73;;
76689;SDS011;70102;44.506;0.220;2023-11-25T11:34:52;2.80;;;1.10;;
76689;SDS011;70102;44.506;0.220;2023-11-25T11:40:25;1.07;;;0.60;;
76689;SDS011;70102;44.506;0.220;2023-11-25T11:45:58;1.80;;;0.63;;
76689;SDS011;70102;44.506;0.220;2023-11-25T11:51:30;1.00;;;0.57;;
76689;SDS011;70102;44.506;0.220;2023-11-25T11:57:04;1.23;;;0.93;;
76689;SDS011;70102;44.506;0.220;2023-11-25T12:02:36;1.40;;;0.87;;
76689;SDS011;70102;44.506;0.220;2023-11-25T12:08:08;4.07;;;1.27;;
76689;SDS011;70102;44.506;0.220;2023-11-25T12:13:41;1.37;;;0.70;;
76689;SDS011;70102;44.506;0.220;2023-11-25T12:19:13;5.53;;;1.70;;
76689;SDS011;70102;44.506;0.220;2023-11-25T12:24:44;5.80;;;1.10;;
76689;SDS011;70102;44.506;0.220;2023-11-25T12:30:17;1.10;;;0.70;;
76689;SDS011;70102;44.506;0.220;2023-11-25T12:35:50;2.90;;;1.20;;
76689;SDS011;70102;44.506;0.220;2023-11-25T12:41:22;4.10;;;1.10;;
76689;SDS011;70102;44.506;0.220;2023-11-25T12:47:02;5.70;;;0.83;;
76689;SDS011;70102;44.506;0.220;2023-11-25T12:52:28;1.90;;;0.60;;
76689;SDS011;70102;44.506;0.220;2023-11-25T12:58:04;1.23;;;0.93;;
76689;SDS011;70102;44.506;0.220;2023-11-25T13:03:33;3.60;;;1.03;;
76689;SDS011;70102;44.506;0.220;2023-11-25T13:09:07;4.63;;;0.83;;
76689;SDS011;70102;44.506;0.220;2023-11-25T13:14:40;5.87;;;0.80;;
76689;SDS011;70102;44.506;0.220;2023-11-25T13:20:12;2.00;;;0.70;;
76689;SDS011;70102;44.506;0.220;2023-11-25T13:25:45;2.13;;;0.60;;
76689;SDS011;70102;44.506;0.220;2023-11-25T13:31:19;1.67;;;0.63;;
76689;SDS011;70102;44.506;0.220;2023-11-25T13:36:54;3.47;;;0.60;;
76689;SDS011;70102;44.506;0.220;2023-11-25T13:42:27;1.43;;;0.40;;
76689;SDS011;70102;44.506;0.220;2023-11-25T13:48:01;2.60;;;0.93;;
76689;SDS011;70102;44.506;0.220;2023-11-25T13:53:34;4.37;;;0.60;;
76689;SDS011;70102;44.506;0.220;2023-11-25T13:59:06;1.50;;;0.87;;
76689;SDS011;70102;44.506;0.220;2023-11-25T14:04:39;1.97;;;0.80;;
76689;SDS011;70102;44.506;0.220;2023-11-25T14:10:12;1.77;;;0.60;;
76689;SDS011;70102;44.506;0.220;2023-11-25T14:15:44;3.13;;;1.40;;
76689;SDS011;70102;44.506;0.220;2023-11-25T14:21:17;1.43;;;0.80;;
76689;SDS011;70102;44.506;0.220;2023-11-25T14:26:50;3.70;;;0.63;;
76689;SDS011;70102;44.506;0.220;2023-11-25T14:32:23;1.50;;;1.00;;
76689;SDS011;70102;44.506;0.220;2023-11-25T14:37:56;5.63;;;1.17;;
76689;SDS011;70102;44.506;0.220;2023-11-25T14:43:30;2.80;;;1.10;;
76689;SDS011;70102;44.506;0.220;2023-11-25T14:49:05;2.43;;;0.87;;
76689;SDS011;70102;44.506;0.220;2023-11-25T14:54:37;2.27;;;1.07;;
76689;SDS011;70102;44.506;0.220;2023-11-25T15:00:10;7.47;;;2.07;;
76689;SDS011;70102;44.506;0.220;2023-11-25T15:05:44;2.37;;;1.17;;
76689;SDS011;70102;44.506;0.220;2023-11-25T15:11:16;1.23;;;1.00;;
76689;SDS011;70102;44.506;0.220;2023-11-25T15:16:50;3.33;;;1.17;;
76689;SDS011;70102;44.506;0.220;2023-11-25T15:22:22;3.93;;;1.00;;
76689;SDS011;70102;44.506;0.220;2023-11-25T15:27:54;4.60;;;1.10;;
76689;SDS011;70102;44.506;0.220;2023-11-25T15:33:26;4.33;;;1.53;;
76689;SDS011;70102;44.506;0.220;2023-11-25T15:38:59;1.63;;;0.90;;
76689;SDS011;70102;44.506;0.220;2023-11-25T15:44:31;5.33;;;1.40;;
76689;SDS011;70102;44.506;0.220;2023-11-25T15:50:04;4.00;;;1.80;;
76689;SDS011;70102;44.506;0.220;2023-11-25T15:55:37;2.83;;;1.43;;
76689;SDS011;70102;44.506;0.220;2023-11-25T16:01:10;3.67;;;1.23;;
76689;SDS011;70102;44.506;0.220;2023-11-25T16:06:41;4.27;;;1.10;;
76689;SDS011;70102;44.506;0.220;2023-11-25T16:12:13;4.93;;;2.00;;
76689;SDS011;70102;44.506;0.220;2023-11-25T16:17:46;3.80;;;1.60;;
76689;SDS011;70102;44.506;0.220;2023-11-25T16:23:18;3.00;;;1.33;;
76689;SDS011;70102;44.506;0.220;2023-11-25T16:28:51;4.30;;;1.20;;
76689;SDS011;70102;44.506;0.220;2023-11-25T16:34:24;3.07;;;1.53;;
76689;SDS011;70102;44.506;0.220;2023-11-25T16:39:57;2.67;;;1.73;;
76689;SDS011;70102;44.506;0.220;2023-11-25T16:45:29;9.20;;;2.13;;
76689;SDS011;70102;44.506;0.220;2023-11-25T16:51:01;11.00;;;4.60;;
76689;SDS011;70102;44.506;0.220;2023-11-25T16:56:33;11.43;;;4.83;;
76689;SDS011;70102;44.506;0.220;2023-11-25T17:02:05;8.50;;;2.40;;
76689;SDS011;70102;44.506;0.220;2023-11-25T17:07:38;8.27;;;2.67;;
76689;SDS011;70102;44.506;0.220;2023-11-25T17:13:11;7.57;;;3.00;;
76689;SDS011;70102;44.506;0.220;2023-11-25T17:18:43;10.07;;;2.40;;
76689;SDS011;70102;44.506;0.220;2023-11-25T17:24:15;5.17;;;2.43;;
76689;SDS011;70102;44.506;0.220;2023-11-25T17:29:49;5.83;;;3.60;;
76689;SDS011;70102;44.506;0.220;2023-11-25T17:35:22;7.97;;;3.73;;
76689;SDS011;70102;44.506;0.220;2023-11-25T17:40:54;7.47;;;3.83;;
76689;SDS011;70102;44.506;0.220;2023-11-25T17:46:26;7.67;;;3.13;;
76689;SDS011;70102;44.506;0.220;2023-11-25T17:51:59;8.57;;;3.57;;
76689;SDS011;70102;44.506;0.220;2023-11-25T17:57:32;8.47;;;3.60;;
76689;SDS011;70102;44.506;0.220;2023-11-25T18:03:05;10.33;;;3.13;;
76689;SDS011;70102;44.506;0.220;2023-11-25T18:08:37;9.47;;;3.13;;
76689;SDS011;70102;44.506;0.220;2023-11-25T18:14:10;8.90;;;2.97;;
76689;SDS011;70102;44.506;0.220;2023-11-25T18:19:42;8.80;;;3.80;;
76689;SDS011;70102;44.506;0.220;2023-11-25T18:25:15;13.67;;;4.50;;
76689;SDS011;70102;44.506;0.220;2023-11-25T18:30:47;9.27;;;3.97;;
76689;SDS011;70102;44.506;0.220;2023-11-25T18:36:19;14.13;;;5.53;;
76689;SDS011;70102;44.506;0.220;2023-11-25T18:41:53;10.73;;;3.97;;
76689;SDS011;70102;44.506;0.220;2023-11-25T18:47:26;5.30;;;3.50;;
76689;SDS011;70102;44.506;0.220;2023-11-25T18:52:59;9.27;;;4.23;;
76689;SDS011;70102;44.506;0.220;2023-11-25T18:58:32;10.10;;;3.20;;
76689;SDS011;70102;44.506;0.220;2023-11-25T19:04:06;9.37;;;4.70;;
76689;SDS011;70102;44.506;0.220;2023-11-25T19:09:38;9.53;;;4.40;;
76689;SDS011;70102;44.506;0.220;2023-11-25T19:15:12;10.20;;;3.37;;
76689;SDS011;70102;44.506;0.220;2023-11-25T19:20:45;11.00;;;3.07;;
76689;SDS011;70102;44.506;0.220;2023-11-25T19:26:18;4.77;;;2.80;;
76689;SDS011;70102;44.506;0.220;2023-11-25T19:31:51;6.93;;;3.97;;
76689;SDS011;70102;44.506;0.220;2023-11-25T19:37:24;8.20;;;4.37;;
76689;SDS011;70102;44.506;0.220;2023-11-25T19:42:57;8.40;;;4.60;;
76689;SDS011;70102;44.506;0.220;2023-11-25T19:48:30;8.70;;;4.63;;
76689;SDS011;70102;44.506;0.220;2023-11-25T19:54:04;59.20;;;21.20;;
76689;SDS011;70102;44.506;0.220;2023-11-25T19:59:37;37.60;;;13.83;;
76689;SDS011;70102;44.506;0.220;2023-11-25T20:05:09;18.63;;;8.67;;
76689;SDS011;70102;44.506;0.220;2023-11-25T20:10:42;15.63;;;7.70;;
76689;SDS011;70102;44.506;0.220;2023-11-25T20:16:14;17.77;;;6.67;;
76689;SDS011;70102;44.506;0.220;2023-11-25T20:21:47;13.60;;;7.00;;
76689;SDS011;70102;44.506;0.220;2023-11-25T20:27:20;15.23;;;8.00;;
76689;SDS011;70102;44.506;0.220;2023-11-25T20:32:54;20.57;;;7.20;;
76689;SDS011;70102;44.506;0.220;2023-11-25T20:38:26;19.47;;;6.57;;
76689;SDS011;70102;44.506;0.220;2023-11-25T20:44:00;13.23;;;5.97;;
76689;SDS011;70102;44.506;0.220;2023-11-25T20:49:34;18.23;;;6.10;;
76689;SDS011;70102;44.506;0.220;2023-11-25T20:55:06;11.13;;;5.73;;
76689;SDS011;70102;44.506;0.220;2023-11-25T21:00:39;13.13;;;5.97;;
76689;SDS011;70102;44.506;0.220;2023-11-25T21:06:12;11.47;;;6.10;;
76689;SDS011;70102;44.506;0.220;2023-11-25T21:11:45;14.93;;;7.47;;
76689;SDS011;70102;44.506;0.220;2023-11-25T21:17:19;30.47;;;9.10;;
76689;SDS011;70102;44.506;0.220;2023-11-25T21:22:51;31.77;;;9.50;;
76689;SDS011;70102;44.506;0.220;2023-11-25T21:28:23;25.17;;;9.13;;
76689;SDS011;70102;44.506;0.220;2023-11-25T21:33:56;13.90;;;6.33;;
76689;SDS011;70102;44.506;0.220;2023-11-25T21:39:28;24.03;;;9.10;;
76689;SDS011;70102;44.506;0.220;2023-11-25T21:45:00;16.33;;;8.40;;
76689;SDS011;70102;44.506;0.220;2023-11-25T21:50:33;19.97;;;7.60;;
76689;SDS011;70102;44.506;0.220;2023-11-25T21:56:06;20.57;;;7.00;;
76689;SDS011;70102;44.506;0.220;2023-11-25T22:01:38;23.13;;;8.30;;
76689;SDS011;70102;44.506;0.220;2023-11-25T22:07:11;15.03;;;7.50;;
76689;SDS011;70102;44.506;0.220;2023-11-25T22:12:43;12.87;;;6.60;;
76689;SDS011;70102;44.506;0.220;2023-11-25T22:18:15;11.43;;;6.80;;
76689;SDS011;70102;44.506;0.220;2023-11-25T22:23:48;22.30;;;7.37;;
76689;SDS011;70102;44.506;0.220;2023-11-25T22:29:21;22.90;;;8.27;;
76689;SDS011;70102;44.506;0.220;2023-11-25T22:34:53;17.23;;;6.93;;
76689;SDS011;70102;44.506;0.220;2023-11-25T22:40:26;16.17;;;8.07;;
76689;SDS011;70102;44.506;0.220;2023-11-25T22:45:59;21.23;;;8.13;;
76689;SDS011;70102;44.506;0.220;2023-11-25T22:51:31;21.47;;;7.47;;
76689;SDS011;70102;44.506;0.220;2023-11-25T22:57:05;22.53;;;8.50;;
76689;SDS011;70102;44.506;0.220;2023-11-25T23:02:37;30.83;;;10.53;;
76689;SDS011;70102;44.506;0.220;2023-11-25T23:08:11;18.23;;;7.60;;
76689;SDS011;70102;44.506;0.220;2023-11-25T23:13:43;20.23;;;7.20;;
76689;SDS011;70102;44.506;0.220;2023-11-25T23:19:19;14.93;;;6.60;;
76689;SDS011;70102;44.506;0.220;2023-11-25T23:24:50;19.53;;;8.23;;
76689;SDS011;70102;44.506;0.220;2023-11-25T23:30:23;26.90;;;8.50;;
76689;SDS011;70102;44.506;0.220;2023-11-25T23:35:55;24.47;;;7.73;;
76689;SDS011;70102;44.506;0.220;2023-11-25T23:41:28;22.70;;;7.97;;
76689;SDS011;70102;44.506;0.220;2023-11-25T23:47:01;33.00;;;8.87;;
76689;SDS011;70102;44.506;0.220;2023-11-25T23:52:33;27.90;;;9.50;;
76689;SDS011;70102;44.506;0.220;2023-11-25T23:58:06;21.50;;;7.67;;
